sensor_id;sensor_type;location;lat;lon;timestamp;P1;durP1;ratioP1;P2;durP2;ratioP2
13477;SDS011;12598;62.382;17.344;2022-11-14T00:00:25;4.72;;;2.30;;
13477;SDS011;12598;62.382;17.344;2022-11-14T00:01:47;6.20;;;2.72;;
13477;SDS011;12598;62.382;17.344;2022-11-14T00:03:08;5.05;;;2.63;;
13477;SDS011;12598;62.382;17.344;2022-11-14T00:04:29;5.57;;;2.58;;
13477;SDS011;12598;62.382;17.344;2022-11-14T00:05:49;3.95;;;2.55;;
13477;SDS011;12598;62.382;17.344;2022-11-14T00:07:09;5.53;;;2.78;;
13477;SDS011;12598;62.382;17.344;2022-11-14T00:08:30;5.28;;;2.42;;
13477;SDS011;12598;62.382;17.344;2022-11-14T00:09:50;4.88;;;2.35;;
13477;SDS011;12598;62.382;17.344;2022-11-14T00:11:11;6.10;;;2.70;;
13477;SDS011;12598;62.382;17.344;2022-11-14T00:12:31;4.40;;;2.33;;
13477;SDS011;12598;62.382;17.344;2022-11-14T00:13:51;3.40;;;1.98;;
13477;SDS011;12598;62.382;17.344;2022-11-14T00:15:12;3.85;;;2.50;;
13477;SDS011;12598;62.382;17.344;2022-11-14T00:16:32;5.82;;;2.70;;
13477;SDS011;12598;62.382;17.344;2022-11-14T00:17:53;4.85;;;2.67;;
13477;SDS011;12598;62.382;17.344;2022-11-14T00:19:13;2.97;;;2.08;;
13477;SDS011;12598;62.382;17.344;2022-11-14T00:20:33;4.53;;;2.47;;
13477;SDS011;12598;62.382;17.344;2022-11-14T00:21:53;5.80;;;2.70;;
13477;SDS011;12598;62.382;17.344;2022-11-14T00:23:13;5.95;;;2.50;;
13477;SDS011;12598;62.382;17.344;2022-11-14T00:24:33;5.10;;;2.40;;
13477;SDS011;12598;62.382;17.344;2022-11-14T00:25:54;4.72;;;2.20;;
13477;SDS011;12598;62.382;17.344;2022-11-14T00:27:14;3.17;;;1.98;;
13477;SDS011;12598;62.382;17.344;2022-11-14T00:28:35;4.20;;;2.47;;
13477;SDS011;12598;62.382;17.344;2022-11-14T00:29:55;3.85;;;2.47;;
13477;SDS011;12598;62.382;17.344;2022-11-14T00:31:15;4.63;;;2.38;;
13477;SDS011;12598;62.382;17.344;2022-11-14T00:32:35;5.65;;;2.65;;
13477;SDS011;12598;62.382;17.344;2022-11-14T00:33:56;3.67;;;2.30;;
13477;SDS011;12598;62.382;17.344;2022-11-14T00:35:16;4.53;;;2.67;;
13477;SDS011;12598;62.382;17.344;2022-11-14T00:36:36;4.63;;;2.45;;
13477;SDS011;12598;62.382;17.344;2022-11-14T00:37:57;4.70;;;2.33;;
13477;SDS011;12598;62.382;17.344;2022-11-14T00:39:17;4.85;;;2.40;;
13477;SDS011;12598;62.382;17.344;2022-11-14T00:40:38;3.60;;;2.17;;
13477;SDS011;12598;62.382;17.344;2022-11-14T00:41:58;5.20;;;2.10;;
13477;SDS011;12598;62.382;17.344;2022-11-14T00:43:18;3.97;;;2.33;;
13477;SDS011;12598;62.382;17.344;2022-11-14T00:44:38;5.25;;;1.98;;
13477;SDS011;12598;62.382;17.344;2022-11-14T00:45:58;3.50;;;2.10;;
13477;SDS011;12598;62.382;17.344;2022-11-14T00:47:19;3.63;;;2.05;;
13477;SDS011;12598;62.382;17.344;2022-11-14T00:48:39;6.43;;;2.70;;
13477;SDS011;12598;62.382;17.344;2022-11-14T00:49:59;4.38;;;2.15;;
13477;SDS011;12598;62.382;17.344;2022-11-14T00:51:19;4.10;;;2.55;;
13477;SDS011;12598;62.382;17.344;2022-11-14T00:52:40;4.72;;;2.65;;
13477;SDS011;12598;62.382;17.344;2022-11-14T00:54:00;4.57;;;2.25;;
13477;SDS011;12598;62.382;17.344;2022-11-14T00:55:20;4.20;;;2.33;;
13477;SDS011;12598;62.382;17.344;2022-11-14T00:56:41;4.95;;;2.45;;
13477;SDS011;12598;62.382;17.344;2022-11-14T00:58:01;4.50;;;2.45;;
13477;SDS011;12598;62.382;17.344;2022-11-14T00:59:21;4.10;;;2.58;;
13477;SDS011;12598;62.382;17.344;2022-11-14T01:00:41;4.53;;;2.15;;
13477;SDS011;12598;62.382;17.344;2022-11-14T01:02:02;4.65;;;2.55;;
13477;SDS011;12598;62.382;17.344;2022-11-14T01:03:22;4.25;;;2.47;;
13477;SDS011;12598;62.382;17.344;2022-11-14T01:04:43;4.22;;;2.47;;
13477;SDS011;12598;62.382;17.344;2022-11-14T01:06:07;6.40;;;2.55;;
13477;SDS011;12598;62.382;17.344;2022-11-14T01:07:29;5.63;;;2.38;;
13477;SDS011;12598;62.382;17.344;2022-11-14T01:08:50;3.58;;;2.20;;
13477;SDS011;12598;62.382;17.344;2022-11-14T01:10:10;3.85;;;2.28;;
13477;SDS011;12598;62.382;17.344;2022-11-14T01:11:31;6.70;;;2.17;;
13477;SDS011;12598;62.382;17.344;2022-11-14T01:12:51;3.72;;;2.17;;
13477;SDS011;12598;62.382;17.344;2022-11-14T01:14:11;5.97;;;2.70;;
13477;SDS011;12598;62.382;17.344;2022-11-14T01:15:31;4.50;;;2.00;;
13477;SDS011;12598;62.382;17.344;2022-11-14T01:16:52;6.50;;;2.45;;
13477;SDS011;12598;62.382;17.344;2022-11-14T01:18:14;3.85;;;2.08;;
13477;SDS011;12598;62.382;17.344;2022-11-14T01:19:39;3.80;;;1.90;;
13477;SDS011;12598;62.382;17.344;2022-11-14T01:20:59;3.78;;;2.30;;
13477;SDS011;12598;62.382;17.344;2022-11-14T01:22:22;3.20;;;1.75;;
13477;SDS011;12598;62.382;17.344;2022-11-14T01:23:43;3.67;;;2.03;;
13477;SDS011;12598;62.382;17.344;2022-11-14T01:25:03;3.55;;;2.13;;
13477;SDS011;12598;62.382;17.344;2022-11-14T01:26:24;3.80;;;2.15;;
13477;SDS011;12598;62.382;17.344;2022-11-14T01:27:44;3.17;;;2.17;;
13477;SDS011;12598;62.382;17.344;2022-11-14T01:29:04;4.05;;;2.20;;
13477;SDS011;12598;62.382;17.344;2022-11-14T01:30:24;3.42;;;1.88;;
13477;SDS011;12598;62.382;17.344;2022-11-14T01:31:44;4.10;;;2.20;;
13477;SDS011;12598;62.382;17.344;2022-11-14T01:33:05;3.45;;;2.28;;
13477;SDS011;12598;62.382;17.344;2022-11-14T01:34:25;3.03;;;1.70;;
13477;SDS011;12598;62.382;17.344;2022-11-14T01:35:46;3.30;;;2.25;;
13477;SDS011;12598;62.382;17.344;2022-11-14T01:37:06;4.90;;;2.10;;
13477;SDS011;12598;62.382;17.344;2022-11-14T01:38:27;3.55;;;2.03;;
13477;SDS011;12598;62.382;17.344;2022-11-14T01:39:47;3.13;;;2.10;;
13477;SDS011;12598;62.382;17.344;2022-11-14T01:41:08;3.38;;;2.08;;
13477;SDS011;12598;62.382;17.344;2022-11-14T01:42:32;3.70;;;2.00;;
13477;SDS011;12598;62.382;17.344;2022-11-14T01:43:52;3.65;;;2.08;;
13477;SDS011;12598;62.382;17.344;2022-11-14T01:47:10;3.40;;;2.10;;
13477;SDS011;12598;62.382;17.344;2022-11-14T01:48:36;1.92;;;1.63;;
13477;SDS011;12598;62.382;17.344;2022-11-14T01:50:01;4.72;;;1.88;;
13477;SDS011;12598;62.382;17.344;2022-11-14T01:51:26;5.18;;;2.00;;
13477;SDS011;12598;62.382;17.344;2022-11-14T01:52:50;3.15;;;2.03;;
13477;SDS011;12598;62.382;17.344;2022-11-14T01:54:12;2.30;;;1.70;;
13477;SDS011;12598;62.382;17.344;2022-11-14T01:55:36;3.80;;;2.10;;
13477;SDS011;12598;62.382;17.344;2022-11-14T01:56:57;3.97;;;2.22;;
13477;SDS011;12598;62.382;17.344;2022-11-14T01:58:19;4.60;;;2.10;;
13477;SDS011;12598;62.382;17.344;2022-11-14T01:59:42;3.63;;;1.90;;
13477;SDS011;12598;62.382;17.344;2022-11-14T02:01:07;4.78;;;2.22;;
13477;SDS011;12598;62.382;17.344;2022-11-14T02:02:28;3.65;;;2.15;;
13477;SDS011;12598;62.382;17.344;2022-11-14T02:03:49;3.65;;;1.88;;
13477;SDS011;12598;62.382;17.344;2022-11-14T02:05:12;4.63;;;1.80;;
13477;SDS011;12598;62.382;17.344;2022-11-14T02:06:35;5.43;;;2.00;;
13477;SDS011;12598;62.382;17.344;2022-11-14T02:07:55;3.95;;;2.13;;
13477;SDS011;12598;62.382;17.344;2022-11-14T02:09:18;3.05;;;1.90;;
13477;SDS011;12598;62.382;17.344;2022-11-14T02:10:39;2.28;;;1.48;;
13477;SDS011;12598;62.382;17.344;2022-11-14T02:11:59;1.73;;;1.48;;
13477;SDS011;12598;62.382;17.344;2022-11-14T02:13:21;4.60;;;2.05;;
13477;SDS011;12598;62.382;17.344;2022-11-14T02:14:42;3.13;;;1.65;;
13477;SDS011;12598;62.382;17.344;2022-11-14T02:16:05;4.07;;;2.00;;
13477;SDS011;12598;62.382;17.344;2022-11-14T02:17:25;4.25;;;2.35;;
13477;SDS011;12598;62.382;17.344;2022-11-14T02:18:49;2.47;;;1.48;;
13477;SDS011;12598;62.382;17.344;2022-11-14T02:21:30;2.70;;;1.80;;
13477;SDS011;12598;62.382;17.344;2022-11-14T02:22:50;2.85;;;1.90;;
13477;SDS011;12598;62.382;17.344;2022-11-14T02:24:10;3.45;;;2.05;;
13477;SDS011;12598;62.382;17.344;2022-11-14T02:25:32;4.00;;;2.00;;
13477;SDS011;12598;62.382;17.344;2022-11-14T02:26:52;3.97;;;2.10;;
13477;SDS011;12598;62.382;17.344;2022-11-14T02:28:12;3.22;;;2.17;;
13477;SDS011;12598;62.382;17.344;2022-11-14T02:29:33;2.13;;;1.67;;
13477;SDS011;12598;62.382;17.344;2022-11-14T02:30:54;3.80;;;1.95;;
13477;SDS011;12598;62.382;17.344;2022-11-14T02:32:14;3.25;;;1.90;;
13477;SDS011;12598;62.382;17.344;2022-11-14T02:33:35;3.15;;;2.00;;
13477;SDS011;12598;62.382;17.344;2022-11-14T02:34:55;4.45;;;2.10;;
13477;SDS011;12598;62.382;17.344;2022-11-14T02:36:15;3.03;;;1.80;;
13477;SDS011;12598;62.382;17.344;2022-11-14T02:37:36;4.88;;;1.85;;
13477;SDS011;12598;62.382;17.344;2022-11-14T02:38:56;3.35;;;1.75;;
13477;SDS011;12598;62.382;17.344;2022-11-14T02:40:17;3.38;;;1.90;;
13477;SDS011;12598;62.382;17.344;2022-11-14T02:41:37;3.53;;;1.70;;
13477;SDS011;12598;62.382;17.344;2022-11-14T02:42:58;3.70;;;1.90;;
13477;SDS011;12598;62.382;17.344;2022-11-14T02:44:19;3.38;;;1.77;;
13477;SDS011;12598;62.382;17.344;2022-11-14T02:45:39;2.72;;;1.90;;
13477;SDS011;12598;62.382;17.344;2022-11-14T02:46:59;3.25;;;1.75;;
13477;SDS011;12598;62.382;17.344;2022-11-14T02:48:20;3.28;;;1.63;;
13477;SDS011;12598;62.382;17.344;2022-11-14T02:49:40;3.58;;;1.85;;
13477;SDS011;12598;62.382;17.344;2022-11-14T02:51:01;3.25;;;1.60;;
13477;SDS011;12598;62.382;17.344;2022-11-14T02:52:21;4.38;;;2.17;;
13477;SDS011;12598;62.382;17.344;2022-11-14T02:53:41;4.15;;;1.88;;
13477;SDS011;12598;62.382;17.344;2022-11-14T02:55:02;4.10;;;2.03;;
13477;SDS011;12598;62.382;17.344;2022-11-14T02:56:24;3.75;;;2.30;;
13477;SDS011;12598;62.382;17.344;2022-11-14T02:57:44;4.22;;;2.13;;
13477;SDS011;12598;62.382;17.344;2022-11-14T02:59:04;3.60;;;1.88;;
13477;SDS011;12598;62.382;17.344;2022-11-14T03:00:25;4.28;;;2.25;;
13477;SDS011;12598;62.382;17.344;2022-11-14T03:01:45;2.80;;;1.98;;
13477;SDS011;12598;62.382;17.344;2022-11-14T03:03:06;3.17;;;2.05;;
13477;SDS011;12598;62.382;17.344;2022-11-14T03:04:26;3.00;;;1.77;;
13477;SDS011;12598;62.382;17.344;2022-11-14T03:05:46;3.38;;;1.73;;
13477;SDS011;12598;62.382;17.344;2022-11-14T03:07:07;2.42;;;1.77;;
13477;SDS011;12598;62.382;17.344;2022-11-14T03:08:27;4.13;;;1.88;;
13477;SDS011;12598;62.382;17.344;2022-11-14T03:09:49;5.05;;;1.98;;
13477;SDS011;12598;62.382;17.344;2022-11-14T03:11:09;4.03;;;2.10;;
13477;SDS011;12598;62.382;17.344;2022-11-14T03:12:29;2.40;;;1.75;;
13477;SDS011;12598;62.382;17.344;2022-11-14T03:13:50;4.03;;;1.63;;
13477;SDS011;12598;62.382;17.344;2022-11-14T03:15:10;3.40;;;2.03;;
13477;SDS011;12598;62.382;17.344;2022-11-14T03:16:30;4.28;;;1.88;;
13477;SDS011;12598;62.382;17.344;2022-11-14T03:17:50;3.65;;;1.73;;
13477;SDS011;12598;62.382;17.344;2022-11-14T03:19:10;3.85;;;1.92;;
13477;SDS011;12598;62.382;17.344;2022-11-14T03:20:31;3.53;;;1.70;;
13477;SDS011;12598;62.382;17.344;2022-11-14T03:21:51;2.75;;;1.60;;
13477;SDS011;12598;62.382;17.344;2022-11-14T03:23:11;3.22;;;1.85;;
13477;SDS011;12598;62.382;17.344;2022-11-14T03:24:31;6.35;;;2.10;;
13477;SDS011;12598;62.382;17.344;2022-11-14T03:25:51;3.70;;;1.70;;
13477;SDS011;12598;62.382;17.344;2022-11-14T03:27:12;3.53;;;1.58;;
13477;SDS011;12598;62.382;17.344;2022-11-14T03:28:32;5.22;;;1.75;;
13477;SDS011;12598;62.382;17.344;2022-11-14T03:29:53;3.90;;;2.13;;
13477;SDS011;12598;62.382;17.344;2022-11-14T03:31:13;4.22;;;1.65;;
13477;SDS011;12598;62.382;17.344;2022-11-14T03:32:34;5.00;;;1.90;;
13477;SDS011;12598;62.382;17.344;2022-11-14T03:33:54;5.80;;;1.92;;
13477;SDS011;12598;62.382;17.344;2022-11-14T03:35:14;4.55;;;1.83;;
13477;SDS011;12598;62.382;17.344;2022-11-14T03:36:35;4.22;;;2.28;;
13477;SDS011;12598;62.382;17.344;2022-11-14T03:37:55;3.33;;;1.73;;
13477;SDS011;12598;62.382;17.344;2022-11-14T03:39:15;2.58;;;1.70;;
13477;SDS011;12598;62.382;17.344;2022-11-14T03:40:39;4.30;;;1.60;;
13477;SDS011;12598;62.382;17.344;2022-11-14T03:41:59;2.15;;;1.30;;
13477;SDS011;12598;62.382;17.344;2022-11-14T03:43:20;4.95;;;1.92;;
13477;SDS011;12598;62.382;17.344;2022-11-14T03:44:40;5.93;;;1.80;;
13477;SDS011;12598;62.382;17.344;2022-11-14T03:46:01;5.10;;;1.65;;
13477;SDS011;12598;62.382;17.344;2022-11-14T03:47:22;4.50;;;2.00;;
13477;SDS011;12598;62.382;17.344;2022-11-14T03:48:43;3.17;;;1.60;;
13477;SDS011;12598;62.382;17.344;2022-11-14T03:50:03;3.00;;;1.65;;
13477;SDS011;12598;62.382;17.344;2022-11-14T03:51:24;2.17;;;1.20;;
13477;SDS011;12598;62.382;17.344;2022-11-14T03:52:47;4.40;;;1.35;;
13477;SDS011;12598;62.382;17.344;2022-11-14T03:54:08;2.63;;;1.58;;
13477;SDS011;12598;62.382;17.344;2022-11-14T03:55:28;3.00;;;1.58;;
13477;SDS011;12598;62.382;17.344;2022-11-14T03:56:48;2.80;;;1.60;;
13477;SDS011;12598;62.382;17.344;2022-11-14T03:58:08;2.88;;;1.55;;
13477;SDS011;12598;62.382;17.344;2022-11-14T03:59:28;3.05;;;1.33;;
13477;SDS011;12598;62.382;17.344;2022-11-14T04:00:49;2.35;;;1.60;;
13477;SDS011;12598;62.382;17.344;2022-11-14T04:02:09;2.45;;;1.50;;
13477;SDS011;12598;62.382;17.344;2022-11-14T04:03:29;3.42;;;1.67;;
13477;SDS011;12598;62.382;17.344;2022-11-14T04:04:49;3.90;;;1.58;;
13477;SDS011;12598;62.382;17.344;2022-11-14T04:06:10;4.03;;;1.77;;
13477;SDS011;12598;62.382;17.344;2022-11-14T04:07:30;3.50;;;2.05;;
13477;SDS011;12598;62.382;17.344;2022-11-14T04:08:50;3.03;;;1.80;;
13477;SDS011;12598;62.382;17.344;2022-11-14T04:10:11;3.20;;;1.90;;
13477;SDS011;12598;62.382;17.344;2022-11-14T04:11:31;2.40;;;1.65;;
13477;SDS011;12598;62.382;17.344;2022-11-14T04:12:52;1.83;;;1.65;;
13477;SDS011;12598;62.382;17.344;2022-11-14T04:14:12;2.28;;;1.77;;
13477;SDS011;12598;62.382;17.344;2022-11-14T04:15:33;2.33;;;1.70;;
13477;SDS011;12598;62.382;17.344;2022-11-14T04:16:53;3.88;;;2.35;;
13477;SDS011;12598;62.382;17.344;2022-11-14T04:18:13;3.72;;;2.00;;
13477;SDS011;12598;62.382;17.344;2022-11-14T04:19:34;2.42;;;2.05;;
13477;SDS011;12598;62.382;17.344;2022-11-14T04:20:54;3.25;;;2.10;;
13477;SDS011;12598;62.382;17.344;2022-11-14T04:22:14;2.08;;;1.60;;
13477;SDS011;12598;62.382;17.344;2022-11-14T04:23:34;5.28;;;2.15;;
13477;SDS011;12598;62.382;17.344;2022-11-14T04:24:54;3.67;;;1.80;;
13477;SDS011;12598;62.382;17.344;2022-11-14T04:26:15;3.72;;;1.75;;
13477;SDS011;12598;62.382;17.344;2022-11-14T04:27:35;3.70;;;1.90;;
13477;SDS011;12598;62.382;17.344;2022-11-14T04:28:56;2.10;;;1.60;;
13477;SDS011;12598;62.382;17.344;2022-11-14T04:30:16;5.82;;;1.88;;
13477;SDS011;12598;62.382;17.344;2022-11-14T04:31:36;3.92;;;1.77;;
13477;SDS011;12598;62.382;17.344;2022-11-14T04:32:56;2.55;;;1.60;;
13477;SDS011;12598;62.382;17.344;2022-11-14T04:34:17;2.53;;;1.67;;
13477;SDS011;12598;62.382;17.344;2022-11-14T04:35:37;4.38;;;2.13;;
13477;SDS011;12598;62.382;17.344;2022-11-14T04:36:57;3.20;;;2.00;;
13477;SDS011;12598;62.382;17.344;2022-11-14T04:38:17;4.05;;;1.70;;
13477;SDS011;12598;62.382;17.344;2022-11-14T04:39:37;4.57;;;1.90;;
13477;SDS011;12598;62.382;17.344;2022-11-14T04:40:57;3.22;;;1.90;;
13477;SDS011;12598;62.382;17.344;2022-11-14T04:42:18;2.95;;;2.08;;
13477;SDS011;12598;62.382;17.344;2022-11-14T04:43:38;3.38;;;1.80;;
13477;SDS011;12598;62.382;17.344;2022-11-14T04:44:58;3.65;;;1.90;;
13477;SDS011;12598;62.382;17.344;2022-11-14T04:46:18;4.03;;;1.95;;
13477;SDS011;12598;62.382;17.344;2022-11-14T04:47:42;4.65;;;1.75;;
13477;SDS011;12598;62.382;17.344;2022-11-14T04:49:03;6.28;;;2.20;;
13477;SDS011;12598;62.382;17.344;2022-11-14T04:50:23;2.97;;;1.70;;
13477;SDS011;12598;62.382;17.344;2022-11-14T04:51:43;4.57;;;2.15;;
13477;SDS011;12598;62.382;17.344;2022-11-14T04:53:03;8.20;;;2.00;;
13477;SDS011;12598;62.382;17.344;2022-11-14T04:54:24;5.28;;;2.08;;
13477;SDS011;12598;62.382;17.344;2022-11-14T04:55:44;2.95;;;1.70;;
13477;SDS011;12598;62.382;17.344;2022-11-14T04:57:05;2.70;;;1.80;;
13477;SDS011;12598;62.382;17.344;2022-11-14T04:58:25;3.60;;;1.70;;
13477;SDS011;12598;62.382;17.344;2022-11-14T04:59:45;4.63;;;1.98;;
13477;SDS011;12598;62.382;17.344;2022-11-14T05:01:07;3.83;;;1.50;;
13477;SDS011;12598;62.382;17.344;2022-11-14T05:02:29;6.40;;;2.05;;
13477;SDS011;12598;62.382;17.344;2022-11-14T05:03:51;3.65;;;1.65;;
13477;SDS011;12598;62.382;17.344;2022-11-14T05:05:11;4.70;;;2.08;;
13477;SDS011;12598;62.382;17.344;2022-11-14T05:06:31;4.05;;;1.75;;
13477;SDS011;12598;62.382;17.344;2022-11-14T05:07:52;3.30;;;1.73;;
13477;SDS011;12598;62.382;17.344;2022-11-14T05:09:13;5.40;;;1.52;;
13477;SDS011;12598;62.382;17.344;2022-11-14T05:10:34;3.60;;;2.03;;
13477;SDS011;12598;62.382;17.344;2022-11-14T05:11:54;2.88;;;1.48;;
13477;SDS011;12598;62.382;17.344;2022-11-14T05:13:14;3.88;;;1.50;;
13477;SDS011;12598;62.382;17.344;2022-11-14T05:14:35;3.40;;;1.60;;
13477;SDS011;12598;62.382;17.344;2022-11-14T05:15:58;4.20;;;1.80;;
13477;SDS011;12598;62.382;17.344;2022-11-14T05:17:19;5.45;;;2.08;;
13477;SDS011;12598;62.382;17.344;2022-11-14T05:18:39;7.45;;;2.08;;
13477;SDS011;12598;62.382;17.344;2022-11-14T05:20:05;3.58;;;1.88;;
13477;SDS011;12598;62.382;17.344;2022-11-14T05:21:26;3.63;;;1.70;;
13477;SDS011;12598;62.382;17.344;2022-11-14T05:22:46;2.60;;;1.55;;
13477;SDS011;12598;62.382;17.344;2022-11-14T05:24:07;4.25;;;1.42;;
13477;SDS011;12598;62.382;17.344;2022-11-14T05:25:27;4.70;;;1.85;;
13477;SDS011;12598;62.382;17.344;2022-11-14T05:26:47;2.63;;;1.60;;
13477;SDS011;12598;62.382;17.344;2022-11-14T05:28:08;2.60;;;1.30;;
13477;SDS011;12598;62.382;17.344;2022-11-14T05:29:28;3.15;;;1.83;;
13477;SDS011;12598;62.382;17.344;2022-11-14T05:30:48;2.20;;;1.50;;
13477;SDS011;12598;62.382;17.344;2022-11-14T05:32:08;3.60;;;1.40;;
13477;SDS011;12598;62.382;17.344;2022-11-14T05:33:34;2.95;;;1.67;;
13477;SDS011;12598;62.382;17.344;2022-11-14T05:34:55;7.38;;;1.60;;
13477;SDS011;12598;62.382;17.344;2022-11-14T05:36:15;2.83;;;1.40;;
13477;SDS011;12598;62.382;17.344;2022-11-14T05:37:36;3.95;;;1.88;;
13477;SDS011;12598;62.382;17.344;2022-11-14T05:38:56;4.97;;;1.48;;
13477;SDS011;12598;62.382;17.344;2022-11-14T05:40:17;3.08;;;1.48;;
13477;SDS011;12598;62.382;17.344;2022-11-14T05:41:38;4.32;;;1.52;;
13477;SDS011;12598;62.382;17.344;2022-11-14T05:42:58;3.88;;;1.70;;
13477;SDS011;12598;62.382;17.344;2022-11-14T05:44:18;4.72;;;1.38;;
13477;SDS011;12598;62.382;17.344;2022-11-14T05:45:38;4.40;;;1.60;;
13477;SDS011;12598;62.382;17.344;2022-11-14T05:46:59;3.05;;;1.45;;
13477;SDS011;12598;62.382;17.344;2022-11-14T05:48:19;4.93;;;1.90;;
13477;SDS011;12598;62.382;17.344;2022-11-14T05:49:39;5.05;;;1.70;;
13477;SDS011;12598;62.382;17.344;2022-11-14T05:51:00;2.47;;;1.55;;
13477;SDS011;12598;62.382;17.344;2022-11-14T05:52:21;3.20;;;1.30;;
13477;SDS011;12598;62.382;17.344;2022-11-14T05:53:42;3.17;;;1.33;;
13477;SDS011;12598;62.382;17.344;2022-11-14T05:55:02;4.05;;;1.77;;
13477;SDS011;12598;62.382;17.344;2022-11-14T05:56:23;3.05;;;1.65;;
13477;SDS011;12598;62.382;17.344;2022-11-14T05:57:43;2.25;;;1.40;;
13477;SDS011;12598;62.382;17.344;2022-11-14T05:59:03;3.45;;;1.63;;
13477;SDS011;12598;62.382;17.344;2022-11-14T06:00:24;3.13;;;1.52;;
13477;SDS011;12598;62.382;17.344;2022-11-14T06:01:44;5.07;;;1.60;;
13477;SDS011;12598;62.382;17.344;2022-11-14T06:03:04;4.28;;;1.77;;
13477;SDS011;12598;62.382;17.344;2022-11-14T06:04:25;5.55;;;1.60;;
13477;SDS011;12598;62.382;17.344;2022-11-14T06:05:46;4.03;;;1.48;;
13477;SDS011;12598;62.382;17.344;2022-11-14T06:07:06;4.20;;;1.60;;
13477;SDS011;12598;62.382;17.344;2022-11-14T06:08:27;5.03;;;1.70;;
13477;SDS011;12598;62.382;17.344;2022-11-14T06:09:48;6.97;;;1.92;;
13477;SDS011;12598;62.382;17.344;2022-11-14T06:11:10;4.85;;;1.60;;
13477;SDS011;12598;62.382;17.344;2022-11-14T06:12:32;6.30;;;1.80;;
13477;SDS011;12598;62.382;17.344;2022-11-14T06:13:52;6.50;;;1.92;;
13477;SDS011;12598;62.382;17.344;2022-11-14T06:15:13;3.03;;;1.60;;
13477;SDS011;12598;62.382;17.344;2022-11-14T06:16:33;3.58;;;1.50;;
13477;SDS011;12598;62.382;17.344;2022-11-14T06:17:53;3.90;;;1.40;;
13477;SDS011;12598;62.382;17.344;2022-11-14T06:19:14;2.15;;;1.30;;
13477;SDS011;12598;62.382;17.344;2022-11-14T06:20:34;4.07;;;1.40;;
13477;SDS011;12598;62.382;17.344;2022-11-14T06:21:55;3.05;;;1.35;;
13477;SDS011;12598;62.382;17.344;2022-11-14T06:23:15;3.50;;;1.70;;
13477;SDS011;12598;62.382;17.344;2022-11-14T06:24:42;4.30;;;1.67;;
13477;SDS011;12598;62.382;17.344;2022-11-14T06:26:03;4.20;;;1.40;;
13477;SDS011;12598;62.382;17.344;2022-11-14T06:27:31;5.00;;;2.08;;
13477;SDS011;12598;62.382;17.344;2022-11-14T06:28:52;3.35;;;1.60;;
13477;SDS011;12598;62.382;17.344;2022-11-14T06:30:12;4.72;;;1.95;;
13477;SDS011;12598;62.382;17.344;2022-11-14T06:31:33;3.03;;;1.67;;
13477;SDS011;12598;62.382;17.344;2022-11-14T06:32:56;3.60;;;1.52;;
13477;SDS011;12598;62.382;17.344;2022-11-14T06:34:19;4.63;;;1.55;;
13477;SDS011;12598;62.382;17.344;2022-11-14T06:35:39;5.28;;;1.60;;
13477;SDS011;12598;62.382;17.344;2022-11-14T06:37:00;4.03;;;1.52;;
13477;SDS011;12598;62.382;17.344;2022-11-14T06:38:20;2.95;;;1.63;;
13477;SDS011;12598;62.382;17.344;2022-11-14T06:39:41;3.17;;;1.33;;
13477;SDS011;12598;62.382;17.344;2022-11-14T06:41:11;4.40;;;1.90;;
13477;SDS011;12598;62.382;17.344;2022-11-14T06:42:31;4.63;;;1.73;;
13477;SDS011;12598;62.382;17.344;2022-11-14T06:43:51;3.13;;;1.55;;
13477;SDS011;12598;62.382;17.344;2022-11-14T06:45:13;2.92;;;1.25;;
13477;SDS011;12598;62.382;17.344;2022-11-14T06:46:33;2.72;;;1.30;;
13477;SDS011;12598;62.382;17.344;2022-11-14T06:47:56;3.38;;;1.48;;
13477;SDS011;12598;62.382;17.344;2022-11-14T06:49:17;3.45;;;1.50;;
13477;SDS011;12598;62.382;17.344;2022-11-14T06:50:38;4.95;;;1.33;;
13477;SDS011;12598;62.382;17.344;2022-11-14T06:51:58;2.50;;;1.35;;
13477;SDS011;12598;62.382;17.344;2022-11-14T06:53:18;2.75;;;1.38;;
13477;SDS011;12598;62.382;17.344;2022-11-14T06:54:39;3.65;;;1.70;;
13477;SDS011;12598;62.382;17.344;2022-11-14T06:56:03;5.25;;;2.13;;
13477;SDS011;12598;62.382;17.344;2022-11-14T06:57:25;3.05;;;1.52;;
13477;SDS011;12598;62.382;17.344;2022-11-14T06:58:47;4.00;;;1.60;;
13477;SDS011;12598;62.382;17.344;2022-11-14T07:00:08;5.00;;;1.60;;
13477;SDS011;12598;62.382;17.344;2022-11-14T07:01:28;3.85;;;1.63;;
13477;SDS011;12598;62.382;17.344;2022-11-14T07:02:49;3.55;;;1.70;;
13477;SDS011;12598;62.382;17.344;2022-11-14T07:04:09;3.58;;;1.40;;
13477;SDS011;12598;62.382;17.344;2022-11-14T07:05:29;2.80;;;1.70;;
13477;SDS011;12598;62.382;17.344;2022-11-14T07:06:50;2.78;;;1.70;;
13477;SDS011;12598;62.382;17.344;2022-11-14T07:08:10;4.13;;;1.52;;
13477;SDS011;12598;62.382;17.344;2022-11-14T07:09:30;1.85;;;1.17;;
13477;SDS011;12598;62.382;17.344;2022-11-14T07:10:50;3.33;;;1.25;;
13477;SDS011;12598;62.382;17.344;2022-11-14T07:12:11;3.70;;;1.70;;
13477;SDS011;12598;62.382;17.344;2022-11-14T07:13:31;4.50;;;1.50;;
13477;SDS011;12598;62.382;17.344;2022-11-14T07:14:53;2.20;;;1.45;;
13477;SDS011;12598;62.382;17.344;2022-11-14T07:16:13;2.17;;;1.45;;
13477;SDS011;12598;62.382;17.344;2022-11-14T07:17:34;6.55;;;1.90;;
13477;SDS011;12598;62.382;17.344;2022-11-14T07:18:55;3.70;;;1.65;;
13477;SDS011;12598;62.382;17.344;2022-11-14T07:20:15;3.85;;;1.38;;
13477;SDS011;12598;62.382;17.344;2022-11-14T07:21:37;6.22;;;1.63;;
13477;SDS011;12598;62.382;17.344;2022-11-14T07:22:57;5.47;;;1.65;;
13477;SDS011;12598;62.382;17.344;2022-11-14T07:24:18;4.53;;;1.35;;
13477;SDS011;12598;62.382;17.344;2022-11-14T07:25:38;7.95;;;1.77;;
13477;SDS011;12598;62.382;17.344;2022-11-14T07:26:58;6.85;;;1.63;;
13477;SDS011;12598;62.382;17.344;2022-11-14T07:28:18;5.03;;;1.35;;
13477;SDS011;12598;62.382;17.344;2022-11-14T07:29:39;3.65;;;1.80;;
13477;SDS011;12598;62.382;17.344;2022-11-14T07:31:02;6.72;;;1.55;;
13477;SDS011;12598;62.382;17.344;2022-11-14T07:32:24;6.22;;;1.88;;
13477;SDS011;12598;62.382;17.344;2022-11-14T07:33:44;6.28;;;1.58;;
13477;SDS011;12598;62.382;17.344;2022-11-14T07:35:05;7.35;;;2.00;;
13477;SDS011;12598;62.382;17.344;2022-11-14T07:36:25;5.90;;;2.17;;
13477;SDS011;12598;62.382;17.344;2022-11-14T07:37:46;5.15;;;1.60;;
13477;SDS011;12598;62.382;17.344;2022-11-14T07:39:06;4.88;;;1.58;;
13477;SDS011;12598;62.382;17.344;2022-11-14T07:40:26;3.92;;;1.40;;
13477;SDS011;12598;62.382;17.344;2022-11-14T07:41:46;7.32;;;1.67;;
13477;SDS011;12598;62.382;17.344;2022-11-14T07:43:07;3.00;;;1.88;;
13477;SDS011;12598;62.382;17.344;2022-11-14T07:44:27;4.93;;;1.90;;
13477;SDS011;12598;62.382;17.344;2022-11-14T07:45:48;5.20;;;2.00;;
13477;SDS011;12598;62.382;17.344;2022-11-14T07:47:08;4.45;;;1.67;;
13477;SDS011;12598;62.382;17.344;2022-11-14T07:48:28;4.13;;;1.52;;
13477;SDS011;12598;62.382;17.344;2022-11-14T07:49:49;4.85;;;2.03;;
13477;SDS011;12598;62.382;17.344;2022-11-14T07:51:14;4.13;;;1.50;;
13477;SDS011;12598;62.382;17.344;2022-11-14T07:52:36;4.13;;;1.92;;
13477;SDS011;12598;62.382;17.344;2022-11-14T07:53:56;4.53;;;1.67;;
13477;SDS011;12598;62.382;17.344;2022-11-14T07:55:16;4.45;;;1.60;;
13477;SDS011;12598;62.382;17.344;2022-11-14T07:56:37;4.40;;;1.95;;
13477;SDS011;12598;62.382;17.344;2022-11-14T07:58:00;6.60;;;2.60;;
13477;SDS011;12598;62.382;17.344;2022-11-14T07:59:21;10.13;;;1.58;;
13477;SDS011;12598;62.382;17.344;2022-11-14T08:00:41;4.05;;;1.85;;
13477;SDS011;12598;62.382;17.344;2022-11-14T08:02:01;7.43;;;2.53;;